METAR Data
IDs: Format: Raw Decoded Include TAF

Data at: 0105 UTC 06 Dec 2019

KLGU 060051Z AUTO 21004KT 1 1/2SM BR OVC006 M01/M01 A3024 RMK AO2 SNB39E49 CIG 004V007 SLP262 P0000 T10061011
KLGU 060048Z AUTO 22003KT 1 1/2SM -SN BR OVC006 M01/M01 A3024 RMK AO2 SNB39 CIG 004V007 P0000
KLGU 060001Z AUTO 00000KT 1SM BR BKN003 OVC009 00/M01 A3023 RMK AO2 T00001011
KLGU 052351Z AUTO 08003KT 3/4SM BR FEW004 OVC009 00/M01 A3023 RMK AO2 SNB22E41 SLP258 P0000 60001 T00001006 10006 21011 53019
KLGU 052331Z AUTO 25006KT 3/4SM -SN BR OVC008 00/M01 A3022 RMK AO2 SNB22 P0000 T00001011
KLGU 052309Z AUTO 26005KT 1SM BR OVC008 00/M01 A3022 RMK AO2 T00001011
KLGU 052259Z AUTO 26007KT 3/4SM BR OVC008 00/M01 A3021 RMK AO2 T00001011
KLGU 052251Z AUTO 24005KT 1SM BR OVC008 00/M01 A3021 RMK AO2 SNE25 SLP249 P0000 T00001011
KLGU 052218Z AUTO 00000KT 1SM -SN BR OVC008 01/M01 A3019 RMK AO2 P0000 T00061006
KLGU 052151Z AUTO 04003KT 3/4SM -SN BR OVC008 00/M01 A3019 RMK AO2 SNB33 SLP243 P0001 T00001011
KLGU 052144Z AUTO 03003KT 3/4SM -SN BR OVC009 00/M01 A3019 RMK AO2 SNB33 P0000 T00001011
KLGU 052051Z AUTO 00000KT 1 1/2SM BR OVC006 M01/M02 A3017 RMK AO2 SLP238 T10061017 53010
KLGU 051951Z AUTO 00000KT 1 3/4SM BR BKN007 OVC018 00/M02 A3015 RMK AO2 SLP228 T00001017
KLGU 051943Z AUTO 00000KT 1 3/4SM BR OVC007 M01/M01 A3015 RMK AO2 T10061011
KLGU 051928Z AUTO 00000KT 2SM BR OVC007 M01/M02 A3015 RMK AO2 T10061022
KLGU 051913Z AUTO 00000KT 2SM BR BKN009 OVC017 M01/M02 A3015 RMK AO2 CIG 008V011 T10061022
KLGU 051904Z AUTO 00000KT 2SM BR BKN011 OVC017 M01/M02 A3016 RMK AO2 CIG 008V013 T10061022
KLGU 051851Z AUTO 00000KT 2SM BR SCT014 OVC019 M01/M02 A3015 RMK AO2 SLP232 T10061022
KLGU 051809Z AUTO 00000KT 2SM BR SCT007 OVC027 M01/M02 A3014 RMK AO2 T10111022
KLGU 051751Z AUTO 00000KT 2SM BR OVC007 M01/M03 A3013 RMK AO2 SLP228 60002 T10111028 11011 21022 53029
KLGU 051723Z AUTO 00000KT 2SM BR BKN008 OVC025 M02/M03 A3012 RMK AO2 T10171028
KLGU 051651Z AUTO 00000KT 2SM BR SCT009 BKN020 OVC036 M02/M03 A3010 RMK AO2 SLP216 T10171028
KLGU 051630Z AUTO 00000KT 1 3/4SM BR FEW007 BKN028 OVC036 M02/M03 A3009 RMK AO2 T10171033
KLGU 051551Z AUTO 32003KT 1 3/4SM BR OVC018 M02/M03 A3007 RMK AO2 SLP204 T10171033
KLGU 051524Z AUTO 31003KT 1 3/4SM BR SCT010 OVC018 M02/M03 A3006 RMK AO2 T10221033
KLGU 051451Z AUTO 00000KT 1 1/2SM BR OVC011 M02/M03 A3004 RMK AO2 SNE47 SLP194 P0000 60002 T10221033 53027
KLGU 051423Z AUTO 00000KT 1 3/4SM -SN BR OVC010 M02/M03 A3002 RMK AO2 CIG 009V013 P0000 T10221033
KLGU 051401Z AUTO 00000KT 2SM -SN BR OVC011 M02/M04 A3000 RMK AO2 P0000 T10221039
KLGU 051351Z AUTO 00000KT 1 3/4SM -SN BR OVC011 M02/M04 A3000 RMK AO2 SNE04B29 SLP180 P0000 T10221039
KLGU 051343Z AUTO 00000KT 1 3/4SM -SN BR OVC013 M02/M04 A2999 RMK AO2 SNE04B29 P0000 T10221039
KLGU 051333Z AUTO 00000KT 2 1/2SM -SN BR OVC013 M02/M04 A2999 RMK AO2 SNE04B29 P0000 T10221039
KLGU 051326Z AUTO 00000KT 3SM BR OVC013 M02/M03 A2998 RMK AO2 SNE04 P0000 T10221033
KLGU 051251Z AUTO 36003KT 2SM -SN BR FEW010 OVC018 M02/M04 A2997 RMK AO2 SLP170 P0002 T10221039
KLGU 051241Z AUTO 02003KT 1 3/4SM -SN BR FEW008 OVC018 M02/M04 A2996 RMK AO2 P0002 T10221044
KLGU 051227Z AUTO 00000KT 1 1/2SM -SN BR SCT008 OVC014 M03/M04 A2996 RMK AO2 P0001 T10281044
KLGU 051151Z AUTO 30003KT 1 1/4SM -SN BR BKN013 OVC026 M03/M04 A2995 RMK AO2 SLP164 P0003 60017 70017 I6002 T10281044 11022 21033 51001
KLGU 051148Z AUTO 29003KT 1 1/4SM -SN BR BKN013 OVC024 M03/M04 A2995 RMK AO2 P0003
KLGU 051102Z AUTO 00000KT 1SM -SN BR BKN016 OVC023 M03/M04 A2994 RMK AO2 P0000 T10281044
KLGU 051051Z AUTO 00000KT 3/4SM -SN BR OVC014 M03/M04 A2994 RMK AO2 SLP164 P0006 T10281039
KLGU 051035Z AUTO 00000KT 3/4SM -SN BR OVC018 M03/M04 A2994 RMK AO2 P0004 T10331044
KLGU 051002Z AUTO 00000KT 1SM -SN BR VV016 M03/M04 A2994 RMK AO2 P0001 T10331044
KLGU 050951Z AUTO 00000KT 3/4SM -SN BR VV016 M03/M04 A2994 RMK AO2 SLP162 P0005 T10281039
KLGU 050928Z AUTO 26003KT 3/4SM -SN BR BKN019 OVC026 M03/M04 A2993 RMK AO2 P0003 T10281044
KLGU 050851Z AUTO 00000KT 1 1/4SM -SN BR FEW004 OVC028 M03/M04 A2992 RMK AO2 UPB02E16FZRAE02SNB16 SLP153 P0003 60003 I1000 I3002 T10281044 53002
KLGU 050848Z AUTO 00000KT 1 1/4SM -SN BR SCT004 OVC028 M03/M04 A2992 RMK AO2 UPB02E16FZRAE02SNB16 P0003 I1000
KLGU 050823Z AUTO 00000KT 1 1/2SM -SN BR OVC003 M03/M05 A2991 RMK AO2 UPB02E16FZRAE02SNB16 P0002 I1000 T10281050
KLGU 050804Z AUTO 00000KT 2SM UP BR BKN003 OVC036 M03/M04 A2991 RMK AO2 UPB02FZRAE02 P0001 I1000 T10281044
KLGU 050751Z AUTO 00000KT 1 1/2SM -FZRA BR OVC003 M03/M04 A2991 RMK AO2 UPB0656E19FZRAB19 SLP149 P0000 I1001 T10281039
KLGU 050746Z AUTO 00000KT 1 1/4SM -FZRA BR OVC003 M03/M04 A2991 RMK AO2 UPB0656E19FZRAB19 P0000 I1001 T10281044
KLGU 050723Z AUTO 30003KT 1/4SM -FZRA FZFG VV002 M03/M05 A2991 RMK AO2 UPB0656E19FZRAB19 P0000 I1001 T10331050
KLGU 050651Z AUTO 33003KT 1/4SM FZFG VV002 M03/M05 A2991 RMK AO2 SLP150 I1001 T10331050 410111050
KLGU 050551Z AUTO 29003KT 1/4SM FZFG VV002 M03/M06 A2991 RMK AO2 SLP150 I1001 I6007 T10331056 11028 21033 55004
KLGU 050451Z AUTO 31003KT 1/4SM FZFG VV002 M03/M05 A2990 RMK AO2 SLP145 I1001 T10331050
KLGU 050351Z AUTO 00000KT 1/4SM FZFG VV002 M03/M04 A2991 RMK AO2 SLP153 I1001 T10331044
KLGU 050251Z AUTO 34004KT 1/4SM FZFG VV002 M03/M05 A2992 RMK AO2 SLP156 I1001 I3004 T10281050 56017
KLGU 050151Z AUTO 00000KT 1/4SM FZFG VV002 M03/M04 A2994 RMK AO2 SLP166 I1002 T10281044
KLGU 050051Z AUTO 34003KT 1/4SM FZFG VV002 M03/M04 A2996 RMK AO2 SLP169 I1001 T10281044
KLGU 042351Z AUTO 26003KT M1/4SM FZFG VV002 M03/M04 A2998 RMK AO2 SLP181 I1001 I6001 T10331044 11011 21033 58008
KLGU 042251Z AUTO 00000KT M1/4SM FZFG VV002 M03/M04 A2999 RMK AO2 SLP181 T10281044
KLGU 042151Z AUTO 25004KT M1/4SM FZFG VV002 M03/M04 A3000 RMK AO2 SLP185 T10281044
KLGU 042051Z AUTO 00000KT M1/4SM FZFG VV002 M02/M04 A3001 RMK AO2 SLP183 T10171039 58028
KLGU 041951Z AUTO 00000KT M1/4SM FZFG VV002 M02/M04 A3005 RMK AO2 SLP202 T10221039
KLGU 041851Z AUTO 00000KT M1/4SM HZ VV002 M01/M04 A3008 RMK AO2 SLP209 T10111039
KLGU 041751Z AUTO 35003KT M1/4SM FZFG VV002 M02/M04 A3010 RMK AO2 SLP219 I1005 I6014 T10171039 11017 21050 58005
KLGU 041651Z AUTO 00000KT M1/4SM FZFG VV002 M02/M04 A3011 RMK AO2 SLP220 I1001 T10171039
KLGU 041551Z AUTO 00000KT M1/4SM FZFG VV001 M03/M05 A3012 RMK AO2 SLP226 I1003 T10281050
KLGU 041451Z AUTO 00000KT M1/4SM FZFG VV002 M03/M06 A3012 RMK AO2 SLP221 I1002 I3005 T10331056 56006
KLGU 041351Z AUTO 05003KT M1/4SM HZ VV001 M04/M07 A3012 RMK AO2 SLP223 I1002 T10391067